Costa Atlantica — IBLQ — position and weather

sailwx.info

Track history (hours):
 
Tides and Currents Weather Stations Pressure Air Temp Water Temp Dewpoint Dewpoint Depression Visibility Wind Speed Wind Dir Waves Ship Positions

Costa Atlantica (Italy)

Last reported at 2017-Mar-23 16:06 UTC. Time now 2017-Mar-24 20:01 UTC.
Position N 33°07' E 132°05'.

Length 292 m; draft 8 m.

Type: Ship. MMSI: 247645000.

Date/timePositionNaut miles runAvg speedWind from/ knotsBaromVisibWave heightAir tempDewpointWater temp
2017-Mar-23 16:06N 33°07' E 132°05'3713.9
2017-Mar-23 13:28N 33°41' E 132°20'1617.5
2017-Mar-23 12:34N 33°53' E 132°33'10 9.5
2017-Mar-23 11:33N 34°02' E 132°28'9 0.8
2017-Mar-22 23:33N 33°55' E 132°34'1312.9
2017-Mar-22 22:33N 33°45' E 132°24'1312.9
2017-Mar-22 21:33N 33°35' E 132°14'2711.1
2017-Mar-22 19:10N 33°09' E 132°06'52715.7
2017-Mar-21 09:33N 31°15' E 121°58'1414.0
2017-Mar-21 08:34N 31°19' E 121°43'1111.4
2017-Mar-21 07:34N 31°25' E 121°31'1 0.8
2017-Mar-21 06:28N 31°25' E 121°30'0 0.0
2017-Mar-21 05:31N 31°25' E 121°30'0 0.0
2017-Mar-21 04:31N 31°25' E 121°30'0 0.0
2017-Mar-21 03:31N 31°25' E 121°30'0 0.0
2017-Mar-21 02:31N 31°25' E 121°30'0 0.0
2017-Mar-21 01:31N 31°25' E 121°30'0 0.0
2017-Mar-21 00:28N 31°25' E 121°30'0 0.1
2017-Mar-20 23:33N 31°25' E 121°30'1010.0
2017-Mar-20 22:33N 31°20' E 121°41'1110.5
2017-Mar-20 21:33N 31°16' E 121°52'1010.5
2017-Mar-20 20:33N 31°14' E 122°04'9 9.1
2017-Mar-20 19:33N 31°09' E 122°13'9 8.7
2017-Mar-20 18:33N 31°06' E 122°23'1111.1
2017-Mar-20 17:33N 31°15' E 122°31'  
2017-Mar-17 14:10N 31°13' E 122°53'4612.8
2017-Mar-17 10:33N 31°15' E 121°59'1313.4
2017-Mar-17 09:33N 31°19' E 121°44'1111.0
2017-Mar-17 08:33N 31°24' E 121°33'2 1.9
2017-Mar-17 07:31N 31°25' E 121°30'0 0.0
2017-Mar-17 06:31N 31°25' E 121°30'0 0.0
2017-Mar-17 05:31N 31°25' E 121°30'0 0.0
2017-Mar-17 04:28N 31°25' E 121°30'0 0.0
2017-Mar-17 03:31N 31°25' E 121°30'0 0.0
2017-Mar-17 02:31N 31°25' E 121°30'0 0.0
2017-Mar-17 01:31N 31°25' E 121°30'0 0.0
2017-Mar-17 00:33N 31°25' E 121°30'0 0.0
2017-Mar-16 23:34N 31°25' E 121°30'7 6.9
2017-Mar-16 22:33N 31°22' E 121°38'10 9.8
2017-Mar-16 21:34N 31°18' E 121°48'9 9.2
2017-Mar-16 20:33N 31°15' E 121°58'1312.7
2017-Mar-16 19:33N 31°10' E 122°12'1313.1
2017-Mar-16 18:33N 31°07' E 122°27'1312.6
2017-Mar-16 17:33N 31°18' E 122°33'  
2017-Mar-14 04:33N 31°09' E 122°29'6 1.5
2017-Mar-14 00:33N 31°15' E 122°28'4 3.9
2017-Mar-13 23:29N 31°11' E 122°28'0 0.0
2017-Mar-13 22:32N 31°11' E 122°28'0 0.0
2017-Mar-13 21:11N 31°11' E 122°28'0 0.1
2017-Mar-13 20:32N 31°11' E 122°28'0 0.0
2017-Mar-13 19:29N 31°11' E 122°28'0 0.0
2017-Mar-13 18:30N 31°11' E 122°28'0 0.0
2017-Mar-13 17:26N 31°11' E 122°28'  
Track history (hours):
 
Tides and Currents Weather Stations Pressure Air Temp Water Temp Dewpoint Dewpoint Depression Visibility Wind Speed Wind Dir Waves Ship Positions

Costa Atlantica (Italy)

Last reported at 2017-Mar-23 16:06 UTC. Time now 2017-Mar-24 20:01 UTC.
Position N 33°07' E 132°05'.

Length 292 m; draft 8 m.

Type: Ship. MMSI: 247645000.

Date/timePositionNaut miles runAvg speedWind from/ knotsBaromVisibWave heightAir tempDewpointWater temp
2017-Mar-23 16:06N 33°07' E 132°05'3713.9
2017-Mar-23 13:28N 33°41' E 132°20'1617.5
2017-Mar-23 12:34N 33°53' E 132°33'10 9.5
2017-Mar-23 11:33N 34°02' E 132°28'9 0.8
2017-Mar-22 23:33N 33°55' E 132°34'1312.9
2017-Mar-22 22:33N 33°45' E 132°24'1312.9
2017-Mar-22 21:33N 33°35' E 132°14'2711.1
2017-Mar-22 19:10N 33°09' E 132°06'52715.7
2017-Mar-21 09:33N 31°15' E 121°58'1414.0
2017-Mar-21 08:34N 31°19' E 121°43'1111.4
2017-Mar-21 07:34N 31°25' E 121°31'1 0.8
2017-Mar-21 06:28N 31°25' E 121°30'0 0.0
2017-Mar-21 05:31N 31°25' E 121°30'0 0.0
2017-Mar-21 04:31N 31°25' E 121°30'0 0.0
2017-Mar-21 03:31N 31°25' E 121°30'0 0.0
2017-Mar-21 02:31N 31°25' E 121°30'0 0.0
2017-Mar-21 01:31N 31°25' E 121°30'0 0.0
2017-Mar-21 00:28N 31°25' E 121°30'0 0.1
2017-Mar-20 23:33N 31°25' E 121°30'1010.0
2017-Mar-20 22:33N 31°20' E 121°41'1110.5
2017-Mar-20 21:33N 31°16' E 121°52'1010.5
2017-Mar-20 20:33N 31°14' E 122°04'9 9.1
2017-Mar-20 19:33N 31°09' E 122°13'9 8.7
2017-Mar-20 18:33N 31°06' E 122°23'1111.1
2017-Mar-20 17:33N 31°15' E 122°31'  
2017-Mar-17 14:10N 31°13' E 122°53'4612.8
2017-Mar-17 10:33N 31°15' E 121°59'1313.4
2017-Mar-17 09:33N 31°19' E 121°44'1111.0
2017-Mar-17 08:33N 31°24' E 121°33'2 1.9
2017-Mar-17 07:31N 31°25' E 121°30'0 0.0
2017-Mar-17 06:31N 31°25' E 121°30'0 0.0
2017-Mar-17 05:31N 31°25' E 121°30'0 0.0
2017-Mar-17 04:28N 31°25' E 121°30'0 0.0
2017-Mar-17 03:31N 31°25' E 121°30'0 0.0
2017-Mar-17 02:31N 31°25' E 121°30'0 0.0
2017-Mar-17 01:31N 31°25' E 121°30'0 0.0
2017-Mar-17 00:33N 31°25' E 121°30'0 0.0
2017-Mar-16 23:34N 31°25' E 121°30'7 6.9
2017-Mar-16 22:33N 31°22' E 121°38'10 9.8
2017-Mar-16 21:34N 31°18' E 121°48'9 9.2
2017-Mar-16 20:33N 31°15' E 121°58'1312.7
2017-Mar-16 19:33N 31°10' E 122°12'1313.1
2017-Mar-16 18:33N 31°07' E 122°27'1312.6
2017-Mar-16 17:33N 31°18' E 122°33'  
2017-Mar-14 04:33N 31°09' E 122°29'6 1.5
2017-Mar-14 00:33N 31°15' E 122°28'4 3.9
2017-Mar-13 23:29N 31°11' E 122°28'0 0.0
2017-Mar-13 22:32N 31°11' E 122°28'0 0.0
2017-Mar-13 21:11N 31°11' E 122°28'0 0.1
2017-Mar-13 20:32N 31°11' E 122°28'0 0.0
2017-Mar-13 19:29N 31°11' E 122°28'0 0.0
2017-Mar-13 18:30N 31°11' E 122°28'0 0.0
2017-Mar-13 17:26N 31°11' E 122°28'  

Dump ship's entire track history